sensor_id;sensor_type;location;lat;lon;timestamp;pressure;altitude;pressure_sealevel;temperature;humidity
23241;BME280;11789;53.482;9.862;2023-02-27T00:01:56;102958.59;;;-2.43;100.00
23241;BME280;11789;53.482;9.862;2023-02-27T00:04:21;102964.91;;;-2.48;100.00
23241;BME280;11789;53.482;9.862;2023-02-27T00:06:47;102964.16;;;-2.47;100.00
23241;BME280;11789;53.482;9.862;2023-02-27T00:09:12;102967.16;;;-2.51;100.00
23241;BME280;11789;53.482;9.862;2023-02-27T00:11:38;102962.37;;;-2.48;100.00
23241;BME280;11789;53.482;9.862;2023-02-27T00:14:04;102959.09;;;-2.47;100.00
23241;BME280;11789;53.482;9.862;2023-02-27T00:16:29;102960.72;;;-2.48;100.00
23241;BME280;11789;53.482;9.862;2023-02-27T00:18:55;102962.88;;;-2.52;100.00
23241;BME280;11789;53.482;9.862;2023-02-27T00:21:23;102964.12;;;-2.57;100.00
23241;BME280;11789;53.482;9.862;2023-02-27T00:23:49;102964.88;;;-2.58;100.00
23241;BME280;11789;53.482;9.862;2023-02-27T00:26:15;102964.38;;;-2.54;100.00
23241;BME280;11789;53.482;9.862;2023-02-27T00:28:41;102965.87;;;-2.56;100.00
23241;BME280;11789;53.482;9.862;2023-02-27T00:31:07;102972.72;;;-2.55;100.00
23241;BME280;11789;53.482;9.862;2023-02-27T00:33:32;102974.25;;;-2.57;100.00
23241;BME280;11789;53.482;9.862;2023-02-27T00:36:01;102971.31;;;-2.62;100.00
23241;BME280;11789;53.482;9.862;2023-02-27T00:38:27;102968.03;;;-2.61;100.00
23241;BME280;11789;53.482;9.862;2023-02-27T00:40:53;102974.94;;;-2.69;100.00
23241;BME280;11789;53.482;9.862;2023-02-27T00:43:18;102974.56;;;-2.73;100.00
23241;BME280;11789;53.482;9.862;2023-02-27T00:45:44;102975.31;;;-2.74;100.00
23241;BME280;11789;53.482;9.862;2023-02-27T00:48:09;102966.41;;;-2.79;100.00
23241;BME280;11789;53.482;9.862;2023-02-27T00:50:35;102966.41;;;-2.79;100.00
23241;BME280;11789;53.482;9.862;2023-02-27T00:53:00;102967.22;;;-2.70;100.00
23241;BME280;11789;53.482;9.862;2023-02-27T00:55:26;102969.75;;;-2.70;100.00
23241;BME280;11789;53.482;9.862;2023-02-27T00:57:53;102967.22;;;-2.70;100.00
23241;BME280;11789;53.482;9.862;2023-02-27T01:00:19;102970.59;;;-2.80;100.00
23241;BME280;11789;53.482;9.862;2023-02-27T01:02:44;102966.78;;;-2.85;100.00
23241;BME280;11789;53.482;9.862;2023-02-27T01:05:10;102968.94;;;-2.79;100.00
23241;BME280;11789;53.482;9.862;2023-02-27T01:07:35;102965.41;;;-2.81;100.00
23241;BME280;11789;53.482;9.862;2023-02-27T01:10:03;102968.56;;;-2.84;100.00
23241;BME280;11789;53.482;9.862;2023-02-27T01:12:29;102966.78;;;-2.85;100.00
23241;BME280;11789;53.482;9.862;2023-02-27T01:14:54;102965.66;;;-2.89;100.00
23241;BME280;11789;53.482;9.862;2023-02-27T01:17:19;102962.84;;;-2.92;100.00
23241;BME280;11789;53.482;9.862;2023-02-27T01:19:45;102960.03;;;-2.95;100.00
23241;BME280;11789;53.482;9.862;2023-02-27T01:22:11;102961.19;;;-2.91;100.00
23241;BME280;11789;53.482;9.862;2023-02-27T01:24:36;102956.75;;;-2.94;100.00
23241;BME280;11789;53.482;9.862;2023-02-27T01:27:02;102960.78;;;-2.96;100.00
23241;BME280;11789;53.482;9.862;2023-02-27T01:29:27;102965.09;;;-2.95;100.00
23241;BME280;11789;53.482;9.862;2023-02-27T01:31:52;102962.19;;;-2.89;100.00
23241;BME280;11789;53.482;9.862;2023-02-27T01:34:19;102950.66;;;-2.96;100.00
23241;BME280;11789;53.482;9.862;2023-02-27T01:36:44;102948.13;;;-2.96;100.00
23241;BME280;11789;53.482;9.862;2023-02-27T01:39:10;102952.72;;;-2.92;100.00
23241;BME280;11789;53.482;9.862;2023-02-27T01:41:35;102946.66;;;-2.94;100.00
23241;BME280;11789;53.482;9.862;2023-02-27T01:44:08;102949.31;;;-2.92;100.00
23241;BME280;11789;53.482;9.862;2023-02-27T01:46:34;102945.13;;;-2.92;100.00
23241;BME280;11789;53.482;9.862;2023-02-27T01:49:27;102943.47;;;-2.91;100.00
23241;BME280;11789;53.482;9.862;2023-02-27T01:52:07;102948.66;;;-2.90;100.00
23241;BME280;11789;53.482;9.862;2023-02-27T01:54:37;102943.00;;;-2.87;100.00
23241;BME280;11789;53.482;9.862;2023-02-27T01:57:04;102941.63;;;-2.83;100.00
23241;BME280;11789;53.482;9.862;2023-02-27T01:59:33;102944.69;;;-2.77;100.00
23241;BME280;11789;53.482;9.862;2023-02-27T02:02:01;102947.56;;;-2.83;100.00
23241;BME280;11789;53.482;9.862;2023-02-27T02:04:31;102944.00;;;-2.85;100.00
23241;BME280;11789;53.482;9.862;2023-02-27T02:07:11;102949.06;;;-2.85;100.00
23241;BME280;11789;53.482;9.862;2023-02-27T02:09:51;102954.81;;;-2.77;100.00
23241;BME280;11789;53.482;9.862;2023-02-27T02:12:21;102958.34;;;-2.75;100.00
23241;BME280;11789;53.482;9.862;2023-02-27T02:14:48;102961.91;;;-2.73;100.00
23241;BME280;11789;53.482;9.862;2023-02-27T02:17:19;102952.75;;;-2.81;100.00
23241;BME280;11789;53.482;9.862;2023-02-27T02:31:18;102955.06;;;-3.03;100.00
23241;BME280;11789;53.482;9.862;2023-02-27T02:42:15;102963.31;;;-2.96;100.00
23241;BME280;11789;53.482;9.862;2023-02-27T02:50:10;102963.59;;;-2.93;100.00
23241;BME280;11789;53.482;9.862;2023-02-27T02:52:52;102961.91;;;-3.02;100.00
23241;BME280;11789;53.482;9.862;2023-02-27T02:55:28;102963.75;;;-3.10;100.00
23241;BME280;11789;53.482;9.862;2023-02-27T03:00:54;102967.59;;;-3.24;100.00
23241;BME280;11789;53.482;9.862;2023-02-27T03:03:27;102965.69;;;-3.26;100.00
23241;BME280;11789;53.482;9.862;2023-02-27T03:06:14;102962.31;;;-3.35;100.00
23241;BME280;11789;53.482;9.862;2023-02-27T03:08:49;102963.22;;;-3.35;100.00
23241;BME280;11789;53.482;9.862;2023-02-27T03:11:37;102957.28;;;-3.35;100.00
23241;BME280;11789;53.482;9.862;2023-02-27T03:14:09;102960.91;;;-3.42;100.00
23241;BME280;11789;53.482;9.862;2023-02-27T03:16:40;102967.19;;;-3.47;100.00
23241;BME280;11789;53.482;9.862;2023-02-27T03:19:12;102962.72;;;-3.50;100.00
23241;BME280;11789;53.482;9.862;2023-02-27T03:21:48;102969.31;;;-3.52;100.00
23241;BME280;11789;53.482;9.862;2023-02-27T03:24:21;102975.13;;;-3.53;100.00
23241;BME280;11789;53.482;9.862;2023-02-27T03:26:50;102970.19;;;-3.51;100.00
23241;BME280;11789;53.482;9.862;2023-02-27T03:29:24;102973.41;;;-3.44;100.00
23241;BME280;11789;53.482;9.862;2023-02-27T03:31:59;102983.84;;;-3.30;100.00
23241;BME280;11789;53.482;9.862;2023-02-27T03:34:35;102978.06;;;-3.29;100.00
23241;BME280;11789;53.482;9.862;2023-02-27T03:37:19;102976.16;;;-3.32;100.00
23241;BME280;11789;53.482;9.862;2023-02-27T03:47:35;102981.31;;;-3.30;100.00
23241;BME280;11789;53.482;9.862;2023-02-27T03:50:01;102984.16;;;-3.27;100.00
23241;BME280;11789;53.482;9.862;2023-02-27T03:52:28;102980.78;;;-3.36;100.00
23241;BME280;11789;53.482;9.862;2023-02-27T03:55:15;102981.25;;;-3.41;100.00
23241;BME280;11789;53.482;9.862;2023-02-27T03:57:44;102987.62;;;-3.54;100.00
23241;BME280;11789;53.482;9.862;2023-02-27T04:00:16;102984.94;;;-3.56;100.00
23241;BME280;11789;53.482;9.862;2023-02-27T04:02:43;102981.34;;;-3.49;100.00
23241;BME280;11789;53.482;9.862;2023-02-27T04:05:09;102988.38;;;-3.36;100.00
23241;BME280;11789;53.482;9.862;2023-02-27T04:10:26;102987.84;;;-3.43;100.00
23241;BME280;11789;53.482;9.862;2023-02-27T04:13:13;102994.66;;;-3.42;100.00
23241;BME280;11789;53.482;9.862;2023-02-27T04:32:37;103012.78;;;-3.83;100.00
23241;BME280;11789;53.482;9.862;2023-02-27T04:35:10;103024.75;;;-3.72;100.00
23241;BME280;11789;53.482;9.862;2023-02-27T04:40:38;103031.00;;;-3.69;100.00
23241;BME280;11789;53.482;9.862;2023-02-27T04:43:08;103039.53;;;-3.58;100.00
23241;BME280;11789;53.482;9.862;2023-02-27T04:45:37;103032.63;;;-3.50;100.00
23241;BME280;11789;53.482;9.862;2023-02-27T04:48:11;103029.81;;;-3.45;100.00
23241;BME280;11789;53.482;9.862;2023-02-27T04:50:45;103031.50;;;-3.54;100.00
23241;BME280;11789;53.482;9.862;2023-02-27T04:53:24;103041.88;;;-3.51;100.00
23241;BME280;11789;53.482;9.862;2023-02-27T04:55:56;103040.97;;;-3.51;100.00
23241;BME280;11789;53.482;9.862;2023-02-27T04:58:28;103038.47;;;-3.51;100.00
23241;BME280;11789;53.482;9.862;2023-02-27T05:01:04;103039.63;;;-3.48;100.00
23241;BME280;11789;53.482;9.862;2023-02-27T05:03:39;103039.63;;;-3.48;100.00
23241;BME280;11789;53.482;9.862;2023-02-27T05:06:08;103042.63;;;-3.52;100.00
23241;BME280;11789;53.482;9.862;2023-02-27T05:08:50;103042.63;;;-3.52;100.00
23241;BME280;11789;53.482;9.862;2023-02-27T05:11:26;103040.37;;;-3.49;100.00
23241;BME280;11789;53.482;9.862;2023-02-27T05:14:27;103042.50;;;-3.53;100.00
23241;BME280;11789;53.482;9.862;2023-02-27T05:17:06;103044.28;;;-3.52;100.00
23241;BME280;11789;53.482;9.862;2023-02-27T05:19:36;103040.47;;;-3.66;100.00
23241;BME280;11789;53.482;9.862;2023-02-27T05:25:09;103051.97;;;-3.70;100.00
23241;BME280;11789;53.482;9.862;2023-02-27T05:32:47;103047.59;;;-3.62;100.00
23241;BME280;11789;53.482;9.862;2023-02-27T05:38:41;103050.13;;;-3.62;100.00
23241;BME280;11789;53.482;9.862;2023-02-27T05:41:18;103047.31;;;-3.65;100.00
23241;BME280;11789;53.482;9.862;2023-02-27T05:43:55;103054.78;;;-3.75;100.00
23241;BME280;11789;53.482;9.862;2023-02-27T05:46:32;103058.28;;;-3.83;100.00
23241;BME280;11789;53.482;9.862;2023-02-27T05:49:13;103054.13;;;-3.92;100.00
23241;BME280;11789;53.482;9.862;2023-02-27T05:51:43;103051.47;;;-3.93;100.00
23241;BME280;11789;53.482;9.862;2023-02-27T05:54:32;103058.59;;;-3.89;100.00
23241;BME280;11789;53.482;9.862;2023-02-27T05:57:06;103053.37;;;-3.91;100.00
23241;BME280;11789;53.482;9.862;2023-02-27T05:59:37;103057.53;;;-3.91;100.00
23241;BME280;11789;53.482;9.862;2023-02-27T06:02:08;103056.19;;;-3.87;100.00
23241;BME280;11789;53.482;9.862;2023-02-27T06:04:34;103055.97;;;-3.99;100.00
23241;BME280;11789;53.482;9.862;2023-02-27T06:07:00;103055.19;;;-3.89;100.00
23241;BME280;11789;53.482;9.862;2023-02-27T06:09:45;103060.03;;;-3.82;100.00
23241;BME280;11789;53.482;9.862;2023-02-27T06:12:11;103063.66;;;-3.89;100.00
23241;BME280;11789;53.482;9.862;2023-02-27T06:14:37;103064.09;;;-3.93;100.00
23241;BME280;11789;53.482;9.862;2023-02-27T06:17:02;103073.31;;;-3.94;100.00
23241;BME280;11789;53.482;9.862;2023-02-27T06:19:28;103078.84;;;-3.98;100.00
23241;BME280;11789;53.482;9.862;2023-02-27T06:21:53;103080.78;;;-4.04;100.00
23241;BME280;11789;53.482;9.862;2023-02-27T06:24:18;103076.31;;;-4.06;100.00
23241;BME280;11789;53.482;9.862;2023-02-27T06:26:44;103075.59;;;-4.05;100.00
23241;BME280;11789;53.482;9.862;2023-02-27T06:29:10;103085.66;;;-3.97;100.00
23241;BME280;11789;53.482;9.862;2023-02-27T06:31:35;103080.91;;;-3.94;100.00
23241;BME280;11789;53.482;9.862;2023-02-27T06:34:01;103082.12;;;-3.99;100.00
23241;BME280;11789;53.482;9.862;2023-02-27T06:36:27;103088.06;;;-3.98;100.00
23241;BME280;11789;53.482;9.862;2023-02-27T06:38:54;103088.81;;;-3.99;100.00
23241;BME280;11789;53.482;9.862;2023-02-27T06:41:20;103091.66;;;-4.05;100.00
23241;BME280;11789;53.482;9.862;2023-02-27T06:43:47;103100.69;;;-4.07;100.00
23241;BME280;11789;53.482;9.862;2023-02-27T06:46:13;103099.22;;;-4.05;100.00
23241;BME280;11789;53.482;9.862;2023-02-27T06:48:39;103099.94;;;-3.97;100.00
23241;BME280;11789;53.482;9.862;2023-02-27T06:51:05;103090.03;;;-3.77;100.00
23241;BME280;11789;53.482;9.862;2023-02-27T06:53:30;103100.69;;;-3.62;100.00
23241;BME280;11789;53.482;9.862;2023-02-27T06:55:56;103103.94;;;-3.54;100.00
23241;BME280;11789;53.482;9.862;2023-02-27T06:58:21;103100.97;;;-3.59;100.00
23241;BME280;11789;53.482;9.862;2023-02-27T07:00:59;103106.28;;;-3.56;100.00
23241;BME280;11789;53.482;9.862;2023-02-27T07:03:25;103110.44;;;-3.48;100.00
23241;BME280;11789;53.482;9.862;2023-02-27T07:05:50;103113.63;;;-3.40;100.00
23241;BME280;11789;53.482;9.862;2023-02-27T07:08:16;103114.41;;;-3.14;100.00
23241;BME280;11789;53.482;9.862;2023-02-27T07:10:42;103108.56;;;-2.56;100.00
23241;BME280;11789;53.482;9.862;2023-02-27T07:13:12;103117.25;;;-1.86;99.68
23241;BME280;11789;53.482;9.862;2023-02-27T07:15:38;103115.47;;;-1.87;97.58
23241;BME280;11789;53.482;9.862;2023-02-27T07:18:04;103118.50;;;-1.91;96.96
23241;BME280;11789;53.482;9.862;2023-02-27T07:20:29;103115.19;;;-1.90;97.50
23241;BME280;11789;53.482;9.862;2023-02-27T07:22:55;103124.25;;;-1.52;97.74
23241;BME280;11789;53.482;9.862;2023-02-27T07:25:20;103113.22;;;0.47;90.45
23241;BME280;11789;53.482;9.862;2023-02-27T07:27:55;103100.59;;;0.82;85.46
23241;BME280;11789;53.482;9.862;2023-02-27T07:30:20;103108.41;;;1.07;84.01
23241;BME280;11789;53.482;9.862;2023-02-27T07:32:46;103111.41;;;1.37;82.35
23241;BME280;11789;53.482;9.862;2023-02-27T07:35:12;103114.84;;;1.61;81.01
23241;BME280;11789;53.482;9.862;2023-02-27T07:37:38;103117.59;;;1.75;80.06
23241;BME280;11789;53.482;9.862;2023-02-27T07:40:05;103107.31;;;3.37;75.42
23241;BME280;11789;53.482;9.862;2023-02-27T07:42:32;103106.12;;;5.28;66.01
23241;BME280;11789;53.482;9.862;2023-02-27T07:44:58;103108.50;;;5.71;62.69
23241;BME280;11789;53.482;9.862;2023-02-27T07:47:24;103103.44;;;5.41;62.75
23241;BME280;11789;53.482;9.862;2023-02-27T07:49:50;103104.37;;;4.98;64.11
23241;BME280;11789;53.482;9.862;2023-02-27T07:52:15;103104.00;;;4.62;65.76
23241;BME280;11789;53.482;9.862;2023-02-27T07:54:41;103110.87;;;4.07;67.47
23241;BME280;11789;53.482;9.862;2023-02-27T07:57:06;103117.63;;;3.38;69.71
23241;BME280;11789;53.482;9.862;2023-02-27T07:59:31;103115.84;;;3.11;71.79
23241;BME280;11789;53.482;9.862;2023-02-27T08:01:57;103115.31;;;3.03;72.93
23241;BME280;11789;53.482;9.862;2023-02-27T08:04:22;103113.44;;;2.87;74.01
23241;BME280;11789;53.482;9.862;2023-02-27T08:06:48;103118.72;;;2.77;75.24
23241;BME280;11789;53.482;9.862;2023-02-27T08:09:14;103112.94;;;2.80;75.76
23241;BME280;11789;53.482;9.862;2023-02-27T08:11:39;103117.03;;;2.78;76.00
23241;BME280;11789;53.482;9.862;2023-02-27T08:14:05;103125.16;;;2.72;76.90
23241;BME280;11789;53.482;9.862;2023-02-27T08:16:30;103115.00;;;2.85;77.23
23241;BME280;11789;53.482;9.862;2023-02-27T08:18:56;103117.00;;;2.90;78.01
23241;BME280;11789;53.482;9.862;2023-02-27T08:21:21;103119.56;;;3.03;78.06
23241;BME280;11789;53.482;9.862;2023-02-27T08:23:46;103121.16;;;3.27;77.18
23241;BME280;11789;53.482;9.862;2023-02-27T08:26:12;103120.00;;;3.49;76.59
23241;BME280;11789;53.482;9.862;2023-02-27T08:28:38;103119.69;;;3.57;76.63
23241;BME280;11789;53.482;9.862;2023-02-27T08:31:04;103123.53;;;3.37;77.07
23241;BME280;11789;53.482;9.862;2023-02-27T08:33:31;103118.88;;;3.19;78.13
23241;BME280;11789;53.482;9.862;2023-02-27T08:35:57;103121.03;;;2.99;78.96
23241;BME280;11789;53.482;9.862;2023-02-27T08:38:23;103125.41;;;3.27;79.80
23241;BME280;11789;53.482;9.862;2023-02-27T08:40:50;103123.88;;;5.40;71.35
23241;BME280;11789;53.482;9.862;2023-02-27T08:43:18;103122.66;;;5.04;71.30
23241;BME280;11789;53.482;9.862;2023-02-27T08:45:44;103124.28;;;6.57;65.96
23241;BME280;11789;53.482;9.862;2023-02-27T08:48:09;103118.19;;;7.06;64.77
23241;BME280;11789;53.482;9.862;2023-02-27T08:50:38;103118.56;;;8.80;59.15
23241;BME280;11789;53.482;9.862;2023-02-27T08:53:03;103103.91;;;11.32;51.43
23241;BME280;11789;53.482;9.862;2023-02-27T08:55:29;103110.00;;;13.16;45.04
23241;BME280;11789;53.482;9.862;2023-02-27T08:57:54;103114.34;;;10.58;49.08
23241;BME280;11789;53.482;9.862;2023-02-27T09:00:20;103110.53;;;11.24;48.48
23241;BME280;11789;53.482;9.862;2023-02-27T09:02:46;103113.41;;;10.80;48.49
23241;BME280;11789;53.482;9.862;2023-02-27T09:05:12;103115.75;;;7.98;55.96
23241;BME280;11789;53.482;9.862;2023-02-27T09:07:37;103117.47;;;8.75;56.36
23241;BME280;11789;53.482;9.862;2023-02-27T09:10:03;103114.25;;;8.60;56.64
23241;BME280;11789;53.482;9.862;2023-02-27T09:12:29;103118.81;;;8.86;56.58
23241;BME280;11789;53.482;9.862;2023-02-27T09:14:54;103117.59;;;8.20;58.61
23241;BME280;11789;53.482;9.862;2023-02-27T09:17:19;103121.66;;;7.77;60.66
23241;BME280;11789;53.482;9.862;2023-02-27T09:19:45;103129.78;;;6.97;63.21
23241;BME280;11789;53.482;9.862;2023-02-27T09:22:10;103137.84;;;6.06;68.01
23241;BME280;11789;53.482;9.862;2023-02-27T09:24:36;103138.94;;;5.80;70.50
23241;BME280;11789;53.482;9.862;2023-02-27T09:27:01;103143.28;;;5.95;71.87
23241;BME280;11789;53.482;9.862;2023-02-27T09:29:27;103140.22;;;6.03;69.15
23241;BME280;11789;53.482;9.862;2023-02-27T09:31:53;103144.41;;;5.86;69.53
23241;BME280;11789;53.482;9.862;2023-02-27T09:34:19;103143.09;;;5.92;68.52
23241;BME280;11789;53.482;9.862;2023-02-27T09:36:44;103150.09;;;5.95;66.53
23241;BME280;11789;53.482;9.862;2023-02-27T09:39:10;103154.88;;;6.20;64.41
23241;BME280;11789;53.482;9.862;2023-02-27T09:44:31;103144.22;;;6.45;61.66
23241;BME280;11789;53.482;9.862;2023-02-27T09:46:59;103140.44;;;6.55;60.62
23241;BME280;11789;53.482;9.862;2023-02-27T09:49:31;103134.19;;;6.66;60.25
23241;BME280;11789;53.482;9.862;2023-02-27T09:51:58;103144.22;;;6.61;58.94
23241;BME280;11789;53.482;9.862;2023-02-27T09:54:30;103140.09;;;6.48;58.32
23241;BME280;11789;53.482;9.862;2023-02-27T09:56:59;103138.19;;;6.44;56.91
23241;BME280;11789;53.482;9.862;2023-02-27T09:59:54;103139.44;;;6.04;57.16
23241;BME280;11789;53.482;9.862;2023-02-27T10:02:31;103137.00;;;5.76;57.17
23241;BME280;11789;53.482;9.862;2023-02-27T10:05:25;103132.72;;;5.60;56.61
23241;BME280;11789;53.482;9.862;2023-02-27T10:10:42;103129.62;;;5.36;58.24
23241;BME280;11789;53.482;9.862;2023-02-27T10:15:52;103120.63;;;5.28;58.29
23241;BME280;11789;53.482;9.862;2023-02-27T10:18:22;103122.31;;;5.12;58.56
23241;BME280;11789;53.482;9.862;2023-02-27T10:23:28;103122.41;;;5.14;57.87
23241;BME280;11789;53.482;9.862;2023-02-27T10:25:56;103129.62;;;5.06;58.05
23241;BME280;11789;53.482;9.862;2023-02-27T10:28:22;103122.81;;;4.77;58.90
23241;BME280;11789;53.482;9.862;2023-02-27T10:30:53;103146.53;;;4.60;58.85
23241;BME280;11789;53.482;9.862;2023-02-27T10:33:36;103138.97;;;4.61;57.11
23241;BME280;11789;53.482;9.862;2023-02-27T10:36:04;103136.56;;;4.64;57.13
23241;BME280;11789;53.482;9.862;2023-02-27T10:38:39;103144.78;;;4.59;56.48
23241;BME280;11789;53.482;9.862;2023-02-27T10:41:10;103142.03;;;4.56;56.62
23241;BME280;11789;53.482;9.862;2023-02-27T10:43:37;103148.22;;;4.59;55.40
23241;BME280;11789;53.482;9.862;2023-02-27T10:46:11;103149.91;;;4.59;54.74
23241;BME280;11789;53.482;9.862;2023-02-27T10:48:38;103160.75;;;4.55;54.27
23241;BME280;11789;53.482;9.862;2023-02-27T10:51:27;103150.34;;;4.52;55.90
23241;BME280;11789;53.482;9.862;2023-02-27T10:54:17;103154.81;;;4.41;55.80
23241;BME280;11789;53.482;9.862;2023-02-27T10:56:47;103163.47;;;4.43;56.29
23241;BME280;11789;53.482;9.862;2023-02-27T10:59:25;103160.97;;;4.45;55.72
23241;BME280;11789;53.482;9.862;2023-02-27T11:04:32;103166.63;;;4.26;55.86
23241;BME280;11789;53.482;9.862;2023-02-27T11:07:01;103165.13;;;4.42;56.53
23241;BME280;11789;53.482;9.862;2023-02-27T11:09:30;103175.09;;;4.38;55.06
23241;BME280;11789;53.482;9.862;2023-02-27T11:12:25;103167.69;;;4.42;55.99
23241;BME280;11789;53.482;9.862;2023-02-27T11:14:53;103164.19;;;4.55;54.97
23241;BME280;11789;53.482;9.862;2023-02-27T11:17:30;103159.63;;;4.64;55.10
23241;BME280;11789;53.482;9.862;2023-02-27T11:20:01;103167.28;;;4.78;54.63
23241;BME280;11789;53.482;9.862;2023-02-27T11:22:31;103166.84;;;4.85;54.91
23241;BME280;11789;53.482;9.862;2023-02-27T11:25:17;103170.44;;;4.74;53.84
23241;BME280;11789;53.482;9.862;2023-02-27T11:27:43;103166.91;;;4.72;55.00
23241;BME280;11789;53.482;9.862;2023-02-27T11:30:25;103175.53;;;4.59;55.15
23241;BME280;11789;53.482;9.862;2023-02-27T11:32:52;103170.88;;;4.66;55.57
23241;BME280;11789;53.482;9.862;2023-02-27T11:35:25;103164.09;;;4.82;54.78
23241;BME280;11789;53.482;9.862;2023-02-27T11:37:54;103158.00;;;4.94;54.72
23241;BME280;11789;53.482;9.862;2023-02-27T11:40:23;103158.63;;;4.90;55.17
23241;BME280;11789;53.482;9.862;2023-02-27T11:42:56;103159.66;;;4.79;54.97
23241;BME280;11789;53.482;9.862;2023-02-27T11:45:34;103161.03;;;4.87;55.04
23241;BME280;11789;53.482;9.862;2023-02-27T11:48:24;103167.38;;;4.94;55.20
23241;BME280;11789;53.482;9.862;2023-02-27T11:50:57;103163.41;;;4.99;54.39
23241;BME280;11789;53.482;9.862;2023-02-27T11:56:43;103158.00;;;4.94;53.89
23241;BME280;11789;53.482;9.862;2023-02-27T12:01:44;103157.41;;;4.99;55.57
23241;BME280;11789;53.482;9.862;2023-02-27T12:04:39;103157.56;;;5.02;56.19
23241;BME280;11789;53.482;9.862;2023-02-27T12:10:20;103146.53;;;5.03;56.89
23241;BME280;11789;53.482;9.862;2023-02-27T12:13:09;103149.19;;;5.04;56.83
23241;BME280;11789;53.482;9.862;2023-02-27T12:21:37;103146.06;;;4.80;57.01
23241;BME280;11789;53.482;9.862;2023-02-27T12:23:36;103148.19;;;4.87;56.32
23241;BME280;11789;53.482;9.862;2023-02-27T12:29:27;103143.19;;;4.61;57.13
23241;BME280;11789;53.482;9.862;2023-02-27T12:34:45;103140.81;;;4.64;58.45
23241;BME280;11789;53.482;9.862;2023-02-27T12:37:15;103138.69;;;4.57;56.76
23241;BME280;11789;53.482;9.862;2023-02-27T12:39:43;103136.28;;;4.60;56.33
23241;BME280;11789;53.482;9.862;2023-02-27T12:42:31;103144.34;;;4.66;54.21
23241;BME280;11789;53.482;9.862;2023-02-27T12:53:51;103128.84;;;4.92;56.85
23241;BME280;11789;53.482;9.862;2023-02-27T12:56:21;103131.94;;;4.87;57.37
23241;BME280;11789;53.482;9.862;2023-02-27T13:01:39;103125.19;;;4.74;57.55
23241;BME280;11789;53.482;9.862;2023-02-27T13:06:59;103128.00;;;4.64;58.36
23241;BME280;11789;53.482;9.862;2023-02-27T13:09:40;103126.03;;;4.60;59.08
23241;BME280;11789;53.482;9.862;2023-02-27T13:15:13;103123.84;;;4.66;57.49
23241;BME280;11789;53.482;9.862;2023-02-27T13:23:02;103120.78;;;4.72;52.98
23241;BME280;11789;53.482;9.862;2023-02-27T13:25:31;103122.63;;;4.74;53.01
23241;BME280;11789;53.482;9.862;2023-02-27T13:28:03;103123.72;;;4.78;52.93
23241;BME280;11789;53.482;9.862;2023-02-27T13:31:00;103122.72;;;4.76;51.82
23241;BME280;11789;53.482;9.862;2023-02-27T13:33:38;103119.78;;;4.69;53.00
23241;BME280;11789;53.482;9.862;2023-02-27T13:36:50;103126.16;;;4.76;52.63
23241;BME280;11789;53.482;9.862;2023-02-27T13:38:56;103112.75;;;4.80;51.12
23241;BME280;11789;53.482;9.862;2023-02-27T13:43:51;103111.06;;;4.81;52.40
23241;BME280;11789;53.482;9.862;2023-02-27T13:56:45;103114.69;;;4.84;55.89
23241;BME280;11789;53.482;9.862;2023-02-27T14:04:50;103118.13;;;4.85;55.07
23241;BME280;11789;53.482;9.862;2023-02-27T14:07:26;103112.03;;;4.68;56.66
23241;BME280;11789;53.482;9.862;2023-02-27T14:10:00;103120.91;;;4.60;57.27
23241;BME280;11789;53.482;9.862;2023-02-27T14:12:33;103121.53;;;4.56;57.79
23241;BME280;11789;53.482;9.862;2023-02-27T14:15:02;103128.31;;;4.55;58.28
23241;BME280;11789;53.482;9.862;2023-02-27T14:22:40;103128.25;;;4.54;56.32
23241;BME280;11789;53.482;9.862;2023-02-27T14:25:19;103132.78;;;4.58;55.89
23241;BME280;11789;53.482;9.862;2023-02-27T14:27:52;103122.09;;;4.65;54.94
23241;BME280;11789;53.482;9.862;2023-02-27T14:30:32;103135.09;;;4.68;55.74
23241;BME280;11789;53.482;9.862;2023-02-27T14:33:43;103126.28;;;4.78;55.68
23241;BME280;11789;53.482;9.862;2023-02-27T14:38:43;103127.50;;;4.84;54.91
23241;BME280;11789;53.482;9.862;2023-02-27T14:43:55;103135.81;;;4.80;54.78
23241;BME280;11789;53.482;9.862;2023-02-27T14:46:28;103141.91;;;4.82;54.48
23241;BME280;11789;53.482;9.862;2023-02-27T14:49:18;103136.81;;;4.82;54.86
23241;BME280;11789;53.482;9.862;2023-02-27T14:51:41;103132.44;;;4.81;53.50
23241;BME280;11789;53.482;9.862;2023-02-27T14:54:15;103138.97;;;4.76;54.02
23241;BME280;11789;53.482;9.862;2023-02-27T14:57:01;103155.25;;;4.77;54.63
23241;BME280;11789;53.482;9.862;2023-02-27T14:59:32;103142.34;;;4.75;55.04
23241;BME280;11789;53.482;9.862;2023-02-27T15:02:00;103142.34;;;4.75;54.44
23241;BME280;11789;53.482;9.862;2023-02-27T15:04:29;103144.22;;;4.78;54.25
23241;BME280;11789;53.482;9.862;2023-02-27T15:06:57;103140.75;;;4.77;53.89
23241;BME280;11789;53.482;9.862;2023-02-27T15:09:33;103136.41;;;4.76;53.48
23241;BME280;11789;53.482;9.862;2023-02-27T15:12:04;103142.34;;;4.75;54.16
23241;BME280;11789;53.482;9.862;2023-02-27T15:14:34;103131.41;;;4.78;53.03
23241;BME280;11789;53.482;9.862;2023-02-27T15:17:01;103139.88;;;4.77;53.18
23241;BME280;11789;53.482;9.862;2023-02-27T15:19:28;103141.53;;;4.76;53.24
23241;BME280;11789;53.482;9.862;2023-02-27T15:21:57;103144.81;;;4.74;53.53
23241;BME280;11789;53.482;9.862;2023-02-27T15:27:00;103140.81;;;4.64;56.70
23241;BME280;11789;53.482;9.862;2023-02-27T15:29:48;103150.97;;;4.62;56.71
23241;BME280;11789;53.482;9.862;2023-02-27T15:34:51;103149.91;;;4.59;54.96
23241;BME280;11789;53.482;9.862;2023-02-27T15:37:23;103160.94;;;4.58;54.77
23241;BME280;11789;53.482;9.862;2023-02-27T15:39:51;103153.66;;;4.51;56.34
23241;BME280;11789;53.482;9.862;2023-02-27T15:42:20;103156.06;;;4.48;57.55
23241;BME280;11789;53.482;9.862;2023-02-27T15:44:47;103155.78;;;4.43;57.99
23241;BME280;11789;53.482;9.862;2023-02-27T15:47:32;103155.56;;;4.40;58.54
23241;BME280;11789;53.482;9.862;2023-02-27T15:50:22;103152.13;;;4.39;58.56